sensor_id;sensor_type;location;lat;lon;timestamp;pressure;altitude;pressure_sealevel;temperature;humidity
71457;BME280;59263;48.160;11.752;2022-07-06T00:00:41;96297.50;;;16.59;81.31
71457;BME280;59263;48.160;11.752;2022-07-06T00:03:06;96302.41;;;16.62;84.02
71457;BME280;59263;48.160;11.752;2022-07-06T00:05:31;96303.72;;;16.58;82.43
71457;BME280;59263;48.160;11.752;2022-07-06T00:07:57;96308.97;;;16.58;83.34
71457;BME280;59263;48.160;11.752;2022-07-06T00:10:22;96304.38;;;16.60;82.64
71457;BME280;59263;48.160;11.752;2022-07-06T00:12:47;96308.63;;;16.61;84.79
71457;BME280;59263;48.160;11.752;2022-07-06T00:15:13;96317.28;;;16.62;82.41
71457;BME280;59263;48.160;11.752;2022-07-06T00:17:38;96315.16;;;16.65;78.96
71457;BME280;59263;48.160;11.752;2022-07-06T00:20:03;96316.25;;;16.71;79.54
71457;BME280;59263;48.160;11.752;2022-07-06T00:22:29;96316.75;;;16.75;76.84
71457;BME280;59263;48.160;11.752;2022-07-06T00:24:54;96308.41;;;16.79;77.83
71457;BME280;59263;48.160;11.752;2022-07-06T00:27:19;96303.03;;;16.81;75.29
71457;BME280;59263;48.160;11.752;2022-07-06T00:29:45;96302.03;;;16.82;80.96
71457;BME280;59263;48.160;11.752;2022-07-06T00:32:11;96303.19;;;16.79;80.53
71457;BME280;59263;48.160;11.752;2022-07-06T00:34:36;96313.81;;;16.78;81.36
71457;BME280;59263;48.160;11.752;2022-07-06T00:37:05;96305.81;;;16.71;83.00
71457;BME280;59263;48.160;11.752;2022-07-06T00:39:30;96306.66;;;16.63;77.83
71457;BME280;59263;48.160;11.752;2022-07-06T00:41:56;96298.81;;;16.63;80.20
71457;BME280;59263;48.160;11.752;2022-07-06T00:44:22;96298.81;;;16.63;80.24
71457;BME280;59263;48.160;11.752;2022-07-06T00:46:47;96295.91;;;16.58;82.83
71457;BME280;59263;48.160;11.752;2022-07-06T00:49:12;96288.09;;;16.50;84.66
71457;BME280;59263;48.160;11.752;2022-07-06T00:51:58;96296.59;;;16.44;81.18
71457;BME280;59263;48.160;11.752;2022-07-06T00:54:25;96290.59;;;16.35;80.83
71457;BME280;59263;48.160;11.752;2022-07-06T00:56:51;96288.44;;;16.31;81.76
71457;BME280;59263;48.160;11.752;2022-07-06T00:59:16;96292.03;;;16.30;82.63
71457;BME280;59263;48.160;11.752;2022-07-06T01:01:42;96295.47;;;16.30;84.38
71457;BME280;59263;48.160;11.752;2022-07-06T01:04:07;96287.84;;;16.20;82.35
71457;BME280;59263;48.160;11.752;2022-07-06T01:06:32;96297.28;;;16.21;85.94
71457;BME280;59263;48.160;11.752;2022-07-06T01:08:58;96298.59;;;16.17;84.42
71457;BME280;59263;48.160;11.752;2022-07-06T01:11:24;96293.84;;;16.13;85.59
71457;BME280;59263;48.160;11.752;2022-07-06T01:13:50;96297.63;;;16.10;86.37
71457;BME280;59263;48.160;11.752;2022-07-06T01:16:17;96288.81;;;16.11;89.77
71457;BME280;59263;48.160;11.752;2022-07-06T01:18:42;96285.22;;;16.12;87.80
71457;BME280;59263;48.160;11.752;2022-07-06T01:21:12;96291.44;;;16.11;91.81
71457;BME280;59263;48.160;11.752;2022-07-06T01:23:42;96278.84;;;16.15;93.69
71457;BME280;59263;48.160;11.752;2022-07-06T01:26:10;96272.50;;;16.17;94.18
71457;BME280;59263;48.160;11.752;2022-07-06T01:28:35;96270.22;;;16.14;89.03
71457;BME280;59263;48.160;11.752;2022-07-06T01:31:01;96273.00;;;16.05;88.08
71457;BME280;59263;48.160;11.752;2022-07-06T01:33:26;96276.28;;;15.99;90.46
71457;BME280;59263;48.160;11.752;2022-07-06T01:35:51;96276.09;;;16.00;88.93
71457;BME280;59263;48.160;11.752;2022-07-06T01:38:17;96274.81;;;15.96;90.72
71457;BME280;59263;48.160;11.752;2022-07-06T01:40:42;96275.13;;;15.93;93.38
71457;BME280;59263;48.160;11.752;2022-07-06T01:43:07;96277.75;;;15.85;96.00
71457;BME280;59263;48.160;11.752;2022-07-06T01:45:33;96274.84;;;15.80;93.83
71457;BME280;59263;48.160;11.752;2022-07-06T01:47:58;96267.66;;;15.82;94.80
71457;BME280;59263;48.160;11.752;2022-07-06T01:50:23;96277.59;;;15.78;94.92
71457;BME280;59263;48.160;11.752;2022-07-06T01:52:49;96284.59;;;15.78;94.67
71457;BME280;59263;48.160;11.752;2022-07-06T01:55:14;96281.34;;;15.67;93.90
71457;BME280;59263;48.160;11.752;2022-07-06T01:57:39;96290.97;;;15.67;99.33
71457;BME280;59263;48.160;11.752;2022-07-06T02:00:07;96286.56;;;15.67;96.33
71457;BME280;59263;48.160;11.752;2022-07-06T02:02:32;96285.22;;;15.63;97.64
71457;BME280;59263;48.160;11.752;2022-07-06T02:04:58;96289.34;;;15.66;98.64
71457;BME280;59263;48.160;11.752;2022-07-06T02:07:23;96285.22;;;15.63;94.69
71457;BME280;59263;48.160;11.752;2022-07-06T02:09:48;96287.22;;;15.69;98.93
71457;BME280;59263;48.160;11.752;2022-07-06T02:12:14;96287.06;;;15.71;94.52
71457;BME280;59263;48.160;11.752;2022-07-06T02:14:39;96286.56;;;15.67;99.76
71457;BME280;59263;48.160;11.752;2022-07-06T02:17:04;96280.81;;;15.64;93.93
71457;BME280;59263;48.160;11.752;2022-07-06T02:19:30;96284.41;;;15.63;97.77
71457;BME280;59263;48.160;11.752;2022-07-06T02:21:55;96289.63;;;15.63;96.64
71457;BME280;59263;48.160;11.752;2022-07-06T02:24:20;96286.84;;;15.64;95.64
71457;BME280;59263;48.160;11.752;2022-07-06T02:26:46;96296.69;;;15.70;97.70
71457;BME280;59263;48.160;11.752;2022-07-06T02:29:11;96293.44;;;15.68;95.91
71457;BME280;59263;48.160;11.752;2022-07-06T02:31:37;96298.97;;;15.65;95.33
71457;BME280;59263;48.160;11.752;2022-07-06T02:34:02;96307.72;;;15.64;98.54
71457;BME280;59263;48.160;11.752;2022-07-06T02:36:27;96300.88;;;15.63;98.99
71457;BME280;59263;48.160;11.752;2022-07-06T02:38:53;96308.38;;;15.58;96.90
71457;BME280;59263;48.160;11.752;2022-07-06T02:41:18;96308.88;;;15.54;98.96
71457;BME280;59263;48.160;11.752;2022-07-06T02:43:43;96305.78;;;15.50;95.95
71457;BME280;59263;48.160;11.752;2022-07-06T02:46:09;96308.53;;;15.48;98.08
71457;BME280;59263;48.160;11.752;2022-07-06T02:48:34;96304.44;;;15.46;98.95
71457;BME280;59263;48.160;11.752;2022-07-06T02:51:00;96306.72;;;15.41;96.69
71457;BME280;59263;48.160;11.752;2022-07-06T02:53:25;96300.03;;;15.38;100.00
71457;BME280;59263;48.160;11.752;2022-07-06T02:55:50;96309.66;;;15.38;100.00
71457;BME280;59263;48.160;11.752;2022-07-06T02:58:16;96303.13;;;15.25;98.87
71457;BME280;59263;48.160;11.752;2022-07-06T03:00:41;96307.34;;;15.27;100.00
71457;BME280;59263;48.160;11.752;2022-07-06T03:03:06;96308.66;;;15.31;100.00
71457;BME280;59263;48.160;11.752;2022-07-06T03:05:32;96312.44;;;15.28;100.00
71457;BME280;59263;48.160;11.752;2022-07-06T03:07:57;96320.38;;;15.27;100.00
71457;BME280;59263;48.160;11.752;2022-07-06T03:10:23;96317.63;;;15.28;100.00
71457;BME280;59263;48.160;11.752;2022-07-06T03:12:48;96311.94;;;15.24;100.00
71457;BME280;59263;48.160;11.752;2022-07-06T03:15:13;96318.75;;;15.25;100.00
71457;BME280;59263;48.160;11.752;2022-07-06T03:17:38;96312.06;;;15.23;100.00
71457;BME280;59263;48.160;11.752;2022-07-06T03:20:05;96316.97;;;15.18;100.00
71457;BME280;59263;48.160;11.752;2022-07-06T03:22:31;96316.47;;;15.14;100.00
71457;BME280;59263;48.160;11.752;2022-07-06T03:24:56;96320.34;;;15.10;100.00
71457;BME280;59263;48.160;11.752;2022-07-06T03:27:21;96316.44;;;15.06;100.00
71457;BME280;59263;48.160;11.752;2022-07-06T03:29:47;96327.50;;;15.08;100.00
71457;BME280;59263;48.160;11.752;2022-07-06T03:32:12;96319.66;;;15.00;100.00
71457;BME280;59263;48.160;11.752;2022-07-06T03:34:37;96322.09;;;15.01;100.00
71457;BME280;59263;48.160;11.752;2022-07-06T03:37:03;96319.84;;;14.98;100.00
71457;BME280;59263;48.160;11.752;2022-07-06T03:39:28;96322.59;;;14.97;100.00
71457;BME280;59263;48.160;11.752;2022-07-06T03:41:53;96310.19;;;14.91;100.00
71457;BME280;59263;48.160;11.752;2022-07-06T03:44:19;96314.56;;;14.90;100.00
71457;BME280;59263;48.160;11.752;2022-07-06T03:46:44;96303.34;;;14.90;100.00
71457;BME280;59263;48.160;11.752;2022-07-06T03:49:09;96304.66;;;14.94;100.00
71457;BME280;59263;48.160;11.752;2022-07-06T03:51:35;96308.56;;;14.90;100.00
71457;BME280;59263;48.160;11.752;2022-07-06T03:54:00;96303.66;;;14.87;100.00
71457;BME280;59263;48.160;11.752;2022-07-06T03:56:25;96304.16;;;14.90;100.00
71457;BME280;59263;48.160;11.752;2022-07-06T03:58:59;96311.53;;;14.95;100.00
71457;BME280;59263;48.160;11.752;2022-07-06T04:01:25;96302.41;;;14.99;100.00
71457;BME280;59263;48.160;11.752;2022-07-06T04:03:50;96316.88;;;15.01;100.00
71457;BME280;59263;48.160;11.752;2022-07-06T04:06:16;96317.38;;;15.05;100.00
71457;BME280;59263;48.160;11.752;2022-07-06T04:08:41;96320.84;;;15.06;100.00
71457;BME280;59263;48.160;11.752;2022-07-06T04:11:07;96315.16;;;15.10;100.00
71457;BME280;59263;48.160;11.752;2022-07-06T04:13:32;96309.63;;;15.13;100.00
71457;BME280;59263;48.160;11.752;2022-07-06T04:15:58;96322.66;;;15.21;100.00
71457;BME280;59263;48.160;11.752;2022-07-06T04:18:24;96328.38;;;15.25;100.00
71457;BME280;59263;48.160;11.752;2022-07-06T04:20:49;96327.59;;;15.33;100.00
71457;BME280;59263;48.160;11.752;2022-07-06T04:23:14;96335.25;;;15.42;100.00
71457;BME280;59263;48.160;11.752;2022-07-06T04:25:40;96330.22;;;15.49;100.00
71457;BME280;59263;48.160;11.752;2022-07-06T04:28:05;96328.09;;;15.61;98.35
71457;BME280;59263;48.160;11.752;2022-07-06T04:30:30;96328.47;;;15.74;98.24
71457;BME280;59263;48.160;11.752;2022-07-06T04:32:56;96325.72;;;15.84;97.21
71457;BME280;59263;48.160;11.752;2022-07-06T04:35:21;96323.09;;;15.92;96.14
71457;BME280;59263;48.160;11.752;2022-07-06T04:37:47;96320.31;;;16.02;97.00
71457;BME280;59263;48.160;11.752;2022-07-06T04:40:13;96334.50;;;16.07;98.78
71457;BME280;59263;48.160;11.752;2022-07-06T04:42:39;96325.03;;;16.14;97.38
71457;BME280;59263;48.160;11.752;2022-07-06T04:45:05;96334.50;;;16.15;94.83
71457;BME280;59263;48.160;11.752;2022-07-06T04:47:30;96323.41;;;16.21;95.09
71457;BME280;59263;48.160;11.752;2022-07-06T04:49:56;96333.66;;;16.23;98.63
71457;BME280;59263;48.160;11.752;2022-07-06T04:52:21;96330.25;;;16.23;96.82
71457;BME280;59263;48.160;11.752;2022-07-06T04:54:47;96332.53;;;16.26;96.37
71457;BME280;59263;48.160;11.752;2022-07-06T04:57:12;96326.19;;;16.28;95.00
71457;BME280;59263;48.160;11.752;2022-07-06T04:59:37;96330.56;;;16.28;95.19
71457;BME280;59263;48.160;11.752;2022-07-06T05:02:03;96332.53;;;16.26;93.50
71457;BME280;59263;48.160;11.752;2022-07-06T05:04:28;96329.94;;;16.26;94.48
71457;BME280;59263;48.160;11.752;2022-07-06T05:06:53;96327.31;;;16.26;92.40
71457;BME280;59263;48.160;11.752;2022-07-06T05:09:19;96328.09;;;16.34;94.11
71457;BME280;59263;48.160;11.752;2022-07-06T05:11:44;96328.28;;;16.33;95.19
71457;BME280;59263;48.160;11.752;2022-07-06T05:14:10;96333.50;;;16.33;95.27
71457;BME280;59263;48.160;11.752;2022-07-06T05:16:35;96333.84;;;16.30;94.77
71457;BME280;59263;48.160;11.752;2022-07-06T05:19:01;96335.78;;;16.28;94.66
71457;BME280;59263;48.160;11.752;2022-07-06T05:21:26;96336.25;;;16.31;96.35
71457;BME280;59263;48.160;11.752;2022-07-06T05:23:52;96333.66;;;16.39;95.17
71457;BME280;59263;48.160;11.752;2022-07-06T05:26:18;96332.16;;;16.53;92.45
71457;BME280;59263;48.160;11.752;2022-07-06T05:28:43;96335.69;;;16.68;93.73
71457;BME280;59263;48.160;11.752;2022-07-06T05:31:08;96335.03;;;16.83;94.26
71457;BME280;59263;48.160;11.752;2022-07-06T05:33:34;96342.50;;;16.94;92.04
71457;BME280;59263;48.160;11.752;2022-07-06T05:35:59;96336.41;;;17.10;94.21
71457;BME280;59263;48.160;11.752;2022-07-06T05:38:25;96340.13;;;17.15;89.46
71457;BME280;59263;48.160;11.752;2022-07-06T05:40:50;96338.16;;;17.17;90.94
71457;BME280;59263;48.160;11.752;2022-07-06T05:43:16;96336.31;;;17.26;92.00
71457;BME280;59263;48.160;11.752;2022-07-06T05:45:41;96345.56;;;17.37;91.27
71457;BME280;59263;48.160;11.752;2022-07-06T05:48:07;96342.97;;;17.60;90.71
71457;BME280;59263;48.160;11.752;2022-07-06T05:50:51;96343.38;;;17.80;84.84
71457;BME280;59263;48.160;11.752;2022-07-06T05:53:16;96343.00;;;17.83;84.91
71457;BME280;59263;48.160;11.752;2022-07-06T05:55:41;96346.28;;;17.85;87.55
71457;BME280;59263;48.160;11.752;2022-07-06T05:58:07;96353.38;;;17.99;84.59
71457;BME280;59263;48.160;11.752;2022-07-06T06:00:32;96358.47;;;18.16;83.44
71457;BME280;59263;48.160;11.752;2022-07-06T06:02:58;96358.03;;;18.27;75.82
71457;BME280;59263;48.160;11.752;2022-07-06T06:05:24;96357.28;;;18.18;75.73
71457;BME280;59263;48.160;11.752;2022-07-06T06:07:50;96356.69;;;18.31;74.22
71457;BME280;59263;48.160;11.752;2022-07-06T06:10:17;96359.25;;;18.16;77.21
71457;BME280;59263;48.160;11.752;2022-07-06T06:12:44;96357.75;;;18.22;78.54
71457;BME280;59263;48.160;11.752;2022-07-06T06:15:11;96359.91;;;18.18;77.38
71457;BME280;59263;48.160;11.752;2022-07-06T06:17:37;96354.06;;;18.31;74.74
71457;BME280;59263;48.160;11.752;2022-07-06T06:20:07;96363.56;;;18.32;75.98
71457;BME280;59263;48.160;11.752;2022-07-06T06:22:56;96361.91;;;18.31;74.96
71457;BME280;59263;48.160;11.752;2022-07-06T06:25:31;96357.31;;;18.33;76.92
71457;BME280;59263;48.160;11.752;2022-07-06T06:27:57;96366.69;;;18.50;76.13
71457;BME280;59263;48.160;11.752;2022-07-06T06:30:22;96362.75;;;18.84;74.83
71457;BME280;59263;48.160;11.752;2022-07-06T06:32:48;96361.38;;;19.03;71.35
71457;BME280;59263;48.160;11.752;2022-07-06T06:35:13;96363.34;;;19.16;73.00
71457;BME280;59263;48.160;11.752;2022-07-06T06:37:39;96360.19;;;19.05;71.14
71457;BME280;59263;48.160;11.752;2022-07-06T06:40:05;96364.53;;;18.98;72.69
71457;BME280;59263;48.160;11.752;2022-07-06T06:42:31;96363.91;;;19.11;72.90
71457;BME280;59263;48.160;11.752;2022-07-06T06:44:56;96362.06;;;19.26;72.67
71457;BME280;59263;48.160;11.752;2022-07-06T06:47:22;96369.38;;;19.31;70.78
71457;BME280;59263;48.160;11.752;2022-07-06T06:49:47;96366.34;;;19.49;69.25
71457;BME280;59263;48.160;11.752;2022-07-06T06:52:13;96369.22;;;19.32;70.05
71457;BME280;59263;48.160;11.752;2022-07-06T06:54:38;96369.47;;;19.38;68.89
71457;BME280;59263;48.160;11.752;2022-07-06T06:57:04;96363.94;;;19.47;70.52
71457;BME280;59263;48.160;11.752;2022-07-06T06:59:29;96367.47;;;19.76;64.64
71457;BME280;59263;48.160;11.752;2022-07-06T07:01:54;96365.63;;;19.91;62.90
71457;BME280;59263;48.160;11.752;2022-07-06T07:04:20;96371.72;;;19.98;63.50
71457;BME280;59263;48.160;11.752;2022-07-06T07:06:45;96365.63;;;19.91;65.48
71457;BME280;59263;48.160;11.752;2022-07-06T07:09:10;96364.53;;;20.07;66.62
71457;BME280;59263;48.160;11.752;2022-07-06T07:11:35;96367.09;;;20.22;61.53
71457;BME280;59263;48.160;11.752;2022-07-06T07:14:01;96371.06;;;20.39;61.92
71457;BME280;59263;48.160;11.752;2022-07-06T07:16:27;96364.94;;;20.53;60.91
71457;BME280;59263;48.160;11.752;2022-07-06T07:18:52;96366.16;;;20.58;63.42
71457;BME280;59263;48.160;11.752;2022-07-06T07:21:18;96373.03;;;20.52;63.85
71457;BME280;59263;48.160;11.752;2022-07-06T07:23:43;96361.91;;;20.57;63.24
71457;BME280;59263;48.160;11.752;2022-07-06T07:26:09;96362.84;;;20.49;59.47
71457;BME280;59263;48.160;11.752;2022-07-06T07:28:34;96367.88;;;20.72;61.17
71457;BME280;59263;48.160;11.752;2022-07-06T07:30:59;96364.81;;;20.62;62.21
71457;BME280;59263;48.160;11.752;2022-07-06T07:33:24;96367.44;;;20.62;59.79
71457;BME280;59263;48.160;11.752;2022-07-06T07:35:50;96364.31;;;20.86;61.35
71457;BME280;59263;48.160;11.752;2022-07-06T07:38:15;96363.94;;;20.89;59.08
71457;BME280;59263;48.160;11.752;2022-07-06T07:40:40;96364.94;;;20.53;58.24
71457;BME280;59263;48.160;11.752;2022-07-06T07:43:06;96374.22;;;20.28;62.68
71457;BME280;59263;48.160;11.752;2022-07-06T07:45:31;96371.91;;;20.18;59.55
71457;BME280;59263;48.160;11.752;2022-07-06T07:47:57;96370.41;;;20.30;62.51
71457;BME280;59263;48.160;11.752;2022-07-06T07:50:22;96372.72;;;19.97;59.31
71457;BME280;59263;48.160;11.752;2022-07-06T07:52:48;96374.03;;;19.87;59.62
71457;BME280;59263;48.160;11.752;2022-07-06T07:55:13;96369.88;;;20.14;58.28
71457;BME280;59263;48.160;11.752;2022-07-06T07:57:39;96368.47;;;20.18;56.89
71457;BME280;59263;48.160;11.752;2022-07-06T08:00:05;96370.31;;;20.45;57.80
71457;BME280;59263;48.160;11.752;2022-07-06T08:02:30;96370.56;;;20.50;57.99
71457;BME280;59263;48.160;11.752;2022-07-06T08:04:56;96366.06;;;20.44;56.42
71457;BME280;59263;48.160;11.752;2022-07-06T08:07:21;96364.03;;;21.02;56.69
71457;BME280;59263;48.160;11.752;2022-07-06T08:09:46;96367.16;;;20.85;56.29
71457;BME280;59263;48.160;11.752;2022-07-06T08:12:12;96369.13;;;20.76;56.34
71457;BME280;59263;48.160;11.752;2022-07-06T08:14:37;96368.75;;;21.14;54.81
71457;BME280;59263;48.160;11.752;2022-07-06T08:17:03;96369.56;;;21.21;54.97
71457;BME280;59263;48.160;11.752;2022-07-06T08:19:28;96369.72;;;21.13;55.62
71457;BME280;59263;48.160;11.752;2022-07-06T08:21:55;96371.00;;;21.23;54.45
71457;BME280;59263;48.160;11.752;2022-07-06T08:24:21;96376.69;;;21.27;53.90
71457;BME280;59263;48.160;11.752;2022-07-06T08:26:46;96375.09;;;20.91;53.83
71457;BME280;59263;48.160;11.752;2022-07-06T08:29:11;96371.38;;;21.14;52.59
71457;BME280;59263;48.160;11.752;2022-07-06T08:31:37;96367.03;;;21.41;51.57
71457;BME280;59263;48.160;11.752;2022-07-06T08:34:02;96371.19;;;21.77;51.29
71457;BME280;59263;48.160;11.752;2022-07-06T08:36:28;96367.59;;;22.04;50.38
71457;BME280;59263;48.160;11.752;2022-07-06T08:38:53;96370.47;;;22.16;52.49
71457;BME280;59263;48.160;11.752;2022-07-06T08:41:22;96376.69;;;21.82;53.19
71457;BME280;59263;48.160;11.752;2022-07-06T08:43:49;96371.56;;;21.60;55.48
71457;BME280;59263;48.160;11.752;2022-07-06T08:46:15;96386.06;;;21.36;55.37
71457;BME280;59263;48.160;11.752;2022-07-06T08:48:41;96373.97;;;21.48;54.55
71457;BME280;59263;48.160;11.752;2022-07-06T08:51:06;96377.28;;;21.84;54.94
71457;BME280;59263;48.160;11.752;2022-07-06T08:53:33;96383.78;;;21.81;55.75
71457;BME280;59263;48.160;11.752;2022-07-06T08:55:59;96379.59;;;22.20;56.50
71457;BME280;59263;48.160;11.752;2022-07-06T08:58:26;96378.16;;;22.11;55.23
71457;BME280;59263;48.160;11.752;2022-07-06T09:00:56;96382.75;;;21.82;54.77
71457;BME280;59263;48.160;11.752;2022-07-06T09:03:22;96384.16;;;21.78;54.67
71457;BME280;59263;48.160;11.752;2022-07-06T09:05:50;96386.66;;;21.99;55.76
71457;BME280;59263;48.160;11.752;2022-07-06T09:08:18;96383.44;;;22.31;54.50
71457;BME280;59263;48.160;11.752;2022-07-06T09:10:43;96390.53;;;22.57;51.28
71457;BME280;59263;48.160;11.752;2022-07-06T09:13:09;96385.84;;;22.72;51.71
71457;BME280;59263;48.160;11.752;2022-07-06T09:15:35;96389.31;;;22.79;48.80
71457;BME280;59263;48.160;11.752;2022-07-06T09:18:04;96394.00;;;22.64;51.04
71457;BME280;59263;48.160;11.752;2022-07-06T09:20:30;96387.69;;;22.78;48.52
71457;BME280;59263;48.160;11.752;2022-07-06T09:23:00;96391.13;;;22.99;48.53
71457;BME280;59263;48.160;11.752;2022-07-06T09:25:26;96395.06;;;23.34;47.70
71457;BME280;59263;48.160;11.752;2022-07-06T09:27:52;96386.84;;;24.01;47.40
71457;BME280;59263;48.160;11.752;2022-07-06T09:30:21;96389.06;;;24.04;46.83
71457;BME280;59263;48.160;11.752;2022-07-06T09:32:49;96390.53;;;24.00;46.75
71457;BME280;59263;48.160;11.752;2022-07-06T09:37:46;96381.22;;;24.72;44.12
71457;BME280;59263;48.160;11.752;2022-07-06T09:40:17;96382.59;;;25.00;44.86
71457;BME280;59263;48.160;11.752;2022-07-06T09:42:44;96390.22;;;25.08;42.69
71457;BME280;59263;48.160;11.752;2022-07-06T09:45:09;96387.72;;;25.50;41.72
71457;BME280;59263;48.160;11.752;2022-07-06T09:47:34;96398.75;;;25.65;40.10
71457;BME280;59263;48.160;11.752;2022-07-06T09:50:01;96382.78;;;25.53;42.79
71457;BME280;59263;48.160;11.752;2022-07-06T09:52:26;96393.66;;;25.33;42.38
71457;BME280;59263;48.160;11.752;2022-07-06T09:54:51;96400.22;;;24.37;41.05
71457;BME280;59263;48.160;11.752;2022-07-06T09:57:17;96393.97;;;25.00;39.47
71457;BME280;59263;48.160;11.752;2022-07-06T09:59:50;96391.31;;;25.25;40.37
71457;BME280;59263;48.160;11.752;2022-07-06T10:02:16;96385.94;;;25.62;39.99
71457;BME280;59263;48.160;11.752;2022-07-06T10:04:44;96390.88;;;25.58;40.03
71457;BME280;59263;48.160;11.752;2022-07-06T10:07:09;96387.25;;;25.90;40.18
71457;BME280;59263;48.160;11.752;2022-07-06T10:09:36;96371.38;;;26.55;38.32
71457;BME280;59263;48.160;11.752;2022-07-06T10:12:05;96381.00;;;26.38;36.60
71457;BME280;59263;48.160;11.752;2022-07-06T10:14:33;96381.81;;;26.26;37.95
71457;BME280;59263;48.160;11.752;2022-07-06T10:17:04;96381.56;;;26.40;38.52
71457;BME280;59263;48.160;11.752;2022-07-06T10:19:31;96381.09;;;26.19;39.02
71457;BME280;59263;48.160;11.752;2022-07-06T10:22:02;96381.41;;;26.53;36.87
71457;BME280;59263;48.160;11.752;2022-07-06T10:24:29;96379.66;;;26.05;38.17
71457;BME280;59263;48.160;11.752;2022-07-06T10:26:55;96384.13;;;26.35;38.64
71457;BME280;59263;48.160;11.752;2022-07-06T10:29:21;96383.06;;;26.36;36.72
71457;BME280;59263;48.160;11.752;2022-07-06T10:31:48;96390.09;;;26.18;37.31
71457;BME280;59263;48.160;11.752;2022-07-06T10:34:15;96380.34;;;25.70;37.26
71457;BME280;59263;48.160;11.752;2022-07-06T10:36:44;96374.06;;;26.25;35.81
71457;BME280;59263;48.160;11.752;2022-07-06T10:39:10;96376.44;;;26.03;36.53
71457;BME280;59263;48.160;11.752;2022-07-06T10:41:55;96367.72;;;26.14;38.00
71457;BME280;59263;48.160;11.752;2022-07-06T10:44:27;96373.75;;;26.92;38.98
71457;BME280;59263;48.160;11.752;2022-07-06T10:46:55;96371.38;;;26.78;36.92
71457;BME280;59263;48.160;11.752;2022-07-06T10:49:21;96374.66;;;26.39;38.83
71457;BME280;59263;48.160;11.752;2022-07-06T10:51:47;96362.59;;;26.66;37.91
71457;BME280;59263;48.160;11.752;2022-07-06T10:54:15;96373.41;;;25.69;37.70
71457;BME280;59263;48.160;11.752;2022-07-06T10:56:46;96364.41;;;25.89;37.51
71457;BME280;59263;48.160;11.752;2022-07-06T10:59:14;96371.78;;;25.87;41.91
71457;BME280;59263;48.160;11.752;2022-07-06T11:01:39;96362.41;;;25.54;36.73
71457;BME280;59263;48.160;11.752;2022-07-06T11:04:07;96355.91;;;24.76;40.28
71457;BME280;59263;48.160;11.752;2022-07-06T11:06:35;96368.69;;;24.11;44.20
71457;BME280;59263;48.160;11.752;2022-07-06T11:16:38;96374.72;;;23.41;44.46
71457;BME280;59263;48.160;11.752;2022-07-06T11:19:13;96370.16;;;23.62;45.72
71457;BME280;59263;48.160;11.752;2022-07-06T11:21:47;96369.72;;;23.65;46.95
71457;BME280;59263;48.160;11.752;2022-07-06T11:24:18;96376.31;;;23.56;44.01
71457;BME280;59263;48.160;11.752;2022-07-06T11:26:46;96375.50;;;23.49;41.96
71457;BME280;59263;48.160;11.752;2022-07-06T11:29:12;96371.97;;;23.23;43.19
71457;BME280;59263;48.160;11.752;2022-07-06T11:31:40;96370.41;;;22.82;44.36
71457;BME280;59263;48.160;11.752;2022-07-06T11:34:08;96368.63;;;22.69;46.52
71457;BME280;59263;48.160;11.752;2022-07-06T11:36:33;96366.63;;;22.52;49.00
71457;BME280;59263;48.160;11.752;2022-07-06T11:38:59;96366.41;;;22.66;44.80
71457;BME280;59263;48.160;11.752;2022-07-06T11:41:25;96365.97;;;22.76;46.29
71457;BME280;59263;48.160;11.752;2022-07-06T11:43:50;96360.88;;;22.88;47.11
71457;BME280;59263;48.160;11.752;2022-07-06T11:48:50;96356.59;;;23.07;46.14
71457;BME280;59263;48.160;11.752;2022-07-06T11:51:15;96348.28;;;22.97;45.84
71457;BME280;59263;48.160;11.752;2022-07-06T11:53:46;96348.84;;;23.12;44.38
71457;BME280;59263;48.160;11.752;2022-07-06T11:56:12;96351.31;;;23.07;45.96
71457;BME280;59263;48.160;11.752;2022-07-06T11:58:39;96349.63;;;23.26;48.41
71457;BME280;59263;48.160;11.752;2022-07-06T12:03:30;96340.75;;;23.52;42.93
71457;BME280;59263;48.160;11.752;2022-07-06T12:05:58;96339.31;;;23.56;44.10
71457;BME280;59263;48.160;11.752;2022-07-06T12:08:23;96337.72;;;23.48;45.16
71457;BME280;59263;48.160;11.752;2022-07-06T12:10:48;96329.22;;;23.39;44.48
71457;BME280;59263;48.160;11.752;2022-07-06T12:13:14;96332.88;;;23.38;43.17
71457;BME280;59263;48.160;11.752;2022-07-06T12:15:39;96324.78;;;23.33;45.43
71457;BME280;59263;48.160;11.752;2022-07-06T12:18:05;96325.03;;;23.25;43.78
71457;BME280;59263;48.160;11.752;2022-07-06T12:20:30;96330.72;;;23.29;45.76
71457;BME280;59263;48.160;11.752;2022-07-06T12:23:02;96315.44;;;23.37;43.76
71457;BME280;59263;48.160;11.752;2022-07-06T12:25:32;96316.63;;;23.41;42.86
71457;BME280;59263;48.160;11.752;2022-07-06T12:27:58;96320.81;;;23.56;44.94
71457;BME280;59263;48.160;11.752;2022-07-06T12:30:23;96314.03;;;23.73;40.02
71457;BME280;59263;48.160;11.752;2022-07-06T12:33:14;96320.31;;;23.65;43.72
71457;BME280;59263;48.160;11.752;2022-07-06T12:35:43;96320.22;;;23.47;42.03
71457;BME280;59263;48.160;11.752;2022-07-06T12:38:09;96316.25;;;23.31;43.60
71457;BME280;59263;48.160;11.752;2022-07-06T12:40:36;96316.06;;;23.33;42.12
71457;BME280;59263;48.160;11.752;2022-07-06T12:43:05;96313.38;;;23.39;44.41
71457;BME280;59263;48.160;11.752;2022-07-06T12:45:31;96307.91;;;23.34;44.09
71457;BME280;59263;48.160;11.752;2022-07-06T12:48:04;96297.91;;;23.43;43.86
71457;BME280;59263;48.160;11.752;2022-07-06T12:50:37;96315.84;;;23.34;42.88
71457;BME280;59263;48.160;11.752;2022-07-06T12:53:04;96300.38;;;23.38;41.90
71457;BME280;59263;48.160;11.752;2022-07-06T12:55:30;96306.78;;;23.55;43.19
71457;BME280;59263;48.160;11.752;2022-07-06T12:57:57;96297.97;;;23.75;39.59